createdAt,value
2023-04-26T00:00:53.557Z,9.71
2023-04-26T00:03:20.801Z,9.74
2023-04-26T00:05:47.629Z,9.80
2023-04-26T00:08:14.310Z,9.86
2023-04-26T00:10:40.927Z,9.91
2023-04-26T00:13:08.259Z,9.93
2023-04-26T00:15:34.926Z,9.93
2023-04-26T00:18:01.603Z,9.98
2023-04-26T00:20:28.278Z,9.96
2023-04-26T00:22:54.906Z,9.99
2023-04-26T00:25:21.494Z,10.00
2023-04-26T00:27:48.037Z,10.00
2023-04-26T00:30:15.008Z,9.96
2023-04-26T00:32:41.610Z,9.96
2023-04-26T00:35:09.090Z,9.96
2023-04-26T00:37:36.152Z,9.92
2023-04-26T00:40:02.834Z,9.89
2023-04-26T00:42:29.406Z,9.85
2023-04-26T00:44:57.616Z,9.84
2023-04-26T00:47:29.810Z,9.76
2023-04-26T00:49:56.805Z,9.75
2023-04-26T00:52:25.119Z,9.72
2023-04-26T00:54:53.579Z,9.64
2023-04-26T00:57:21.567Z,9.53
2023-04-26T00:59:48.715Z,9.49
2023-04-26T01:02:16.154Z,9.41
2023-04-26T01:04:42.926Z,9.36
2023-04-26T01:07:10.116Z,9.29
2023-04-26T01:09:36.664Z,9.21
2023-04-26T01:12:05.079Z,9.14
2023-04-26T01:14:32.744Z,9.09
2023-04-26T01:16:59.723Z,9.06
2023-04-26T01:19:26.342Z,9.02
2023-04-26T01:21:52.880Z,8.94
2023-04-26T01:24:19.435Z,8.92
2023-04-26T01:26:47.357Z,8.91
2023-04-26T01:29:18.108Z,8.90
2023-04-26T01:31:45.524Z,8.86
2023-04-26T01:34:12.401Z,8.85
2023-04-26T01:36:39.088Z,8.84
2023-04-26T01:39:05.704Z,8.82
2023-04-26T01:41:33.696Z,8.77
2023-04-26T01:44:01.666Z,8.73
2023-04-26T01:46:28.396Z,8.71
2023-04-26T01:48:55.065Z,8.65
2023-04-26T01:51:21.812Z,8.64
2023-04-26T01:53:48.542Z,8.59
2023-04-26T01:56:15.166Z,8.56
2023-04-26T01:58:41.839Z,8.53
2023-04-26T02:01:09.545Z,8.49
2023-04-26T02:03:36.224Z,8.44
2023-04-26T02:06:03.942Z,8.39
2023-04-26T02:08:30.563Z,8.36
2023-04-26T02:10:57.329Z,8.38
2023-04-26T02:13:23.932Z,8.42
2023-04-26T02:15:51.407Z,8.42
2023-04-26T02:18:21.945Z,8.37
2023-04-26T02:20:48.776Z,8.33
2023-04-26T02:23:15.827Z,8.32
2023-04-26T02:25:45.965Z,8.33
2023-04-26T02:28:12.724Z,8.30
2023-04-26T02:30:39.294Z,8.25
2023-04-26T02:33:06.023Z,8.22
2023-04-26T02:35:32.610Z,8.17
2023-04-26T02:37:59.186Z,8.11
2023-04-26T02:40:25.807Z,8.11
2023-04-26T02:42:52.413Z,8.08
2023-04-26T02:45:19.116Z,8.08
2023-04-26T02:47:45.888Z,8.08
2023-04-26T02:50:12.475Z,8.09
2023-04-26T02:52:39.151Z,8.09
2023-04-26T02:55:07.099Z,8.06
2023-04-26T02:57:33.790Z,8.05
2023-04-26T03:00:00.845Z,8.04
2023-04-26T03:02:27.701Z,8.03
2023-04-26T03:04:56.028Z,8.00
2023-04-26T03:07:22.897Z,7.97
2023-04-26T03:09:49.719Z,7.95
2023-04-26T03:12:16.617Z,7.88
2023-04-26T03:14:43.159Z,7.82
2023-04-26T03:17:09.713Z,7.78
2023-04-26T03:19:36.629Z,7.76
2023-04-26T03:22:03.315Z,7.71
2023-04-26T03:24:29.911Z,7.67
2023-04-26T03:26:56.477Z,7.62
2023-04-26T03:29:23.013Z,7.59
2023-04-26T03:31:49.620Z,7.59
2023-04-26T03:34:16.182Z,7.59
2023-04-26T03:36:42.740Z,7.63
2023-04-26T03:39:10.312Z,7.64
2023-04-26T03:41:39.539Z,7.70
2023-04-26T03:44:06.675Z,7.71
2023-04-26T03:46:33.292Z,7.68
2023-04-26T03:48:59.928Z,7.68
2023-04-26T03:51:28.342Z,7.71
2023-04-26T03:53:55.625Z,7.71
2023-04-26T03:56:22.253Z,7.73
2023-04-26T03:58:48.928Z,7.73
2023-04-26T04:01:15.836Z,7.74
2023-04-26T04:03:42.609Z,7.71
2023-04-26T04:06:09.480Z,7.73
2023-04-26T04:08:36.271Z,7.73
2023-04-26T04:11:02.816Z,7.75
2023-04-26T04:13:29.463Z,7.74
2023-04-26T04:15:56.270Z,7.76
2023-04-26T04:18:22.888Z,7.77
2023-04-26T04:20:49.497Z,7.74
2023-04-26T04:23:16.085Z,7.75
2023-04-26T04:25:44.054Z,7.76
2023-04-26T04:28:12.028Z,7.77
2023-04-26T04:30:38.593Z,7.78
2023-04-26T04:33:05.443Z,7.77
2023-04-26T04:35:34.238Z,7.74
2023-04-26T04:38:03.109Z,7.75
2023-04-26T04:40:30.379Z,7.73
2023-04-26T04:42:56.942Z,7.76
2023-04-26T04:45:23.730Z,7.75
2023-04-26T04:47:50.443Z,7.75
2023-04-26T04:50:17.728Z,7.74
2023-04-26T04:52:44.472Z,7.75
2023-04-26T04:55:11.158Z,7.72
2023-04-26T04:57:37.801Z,7.70
2023-04-26T05:00:14.286Z,7.72
2023-04-26T05:02:41.271Z,7.76
2023-04-26T05:05:08.422Z,7.74
2023-04-26T05:07:35.224Z,7.75
2023-04-26T05:10:02.171Z,7.81
2023-04-26T05:12:28.766Z,7.83
2023-04-26T05:14:55.513Z,7.88
2023-04-26T05:17:22.065Z,7.93
2023-04-26T05:19:48.604Z,8.02
2023-04-26T05:22:18.663Z,8.06
2023-04-26T05:24:49.001Z,8.13
2023-04-26T05:27:16.006Z,8.19
2023-04-26T05:29:42.643Z,8.26
2023-04-26T05:32:09.491Z,8.25
2023-04-26T05:34:37.381Z,8.33
2023-04-26T05:37:04.126Z,8.37
2023-04-26T05:39:30.834Z,8.40
2023-04-26T05:41:57.440Z,8.46
2023-04-26T05:44:24.592Z,8.49
2023-04-26T05:46:51.162Z,8.52
2023-04-26T05:49:17.852Z,8.56
2023-04-26T05:51:44.416Z,8.60
2023-04-26T05:54:11.033Z,8.68
2023-04-26T05:56:37.573Z,8.78
2023-04-26T05:59:04.158Z,8.80
2023-04-26T06:01:30.982Z,8.81
2023-04-26T06:04:00.889Z,8.86
2023-04-26T06:06:28.403Z,8.93
2023-04-26T06:08:55.601Z,8.97
2023-04-26T06:11:22.343Z,9.10
2023-04-26T06:13:49.065Z,9.18
2023-04-26T06:16:16.646Z,9.21
2023-04-26T06:18:43.863Z,9.23
2023-04-26T06:21:10.569Z,9.26
2023-04-26T06:23:37.180Z,9.31
2023-04-26T06:26:03.846Z,9.34
2023-04-26T06:28:30.420Z,9.35
2023-04-26T06:30:57.010Z,9.36
2023-04-26T06:33:23.586Z,9.37
2023-04-26T06:35:50.271Z,9.41
2023-04-26T06:38:16.830Z,9.49
2023-04-26T06:40:43.440Z,9.54
2023-04-26T06:43:10.042Z,9.62
2023-04-26T06:45:37.017Z,9.75
2023-04-26T06:48:04.927Z,9.80
2023-04-26T06:50:31.768Z,9.83
2023-04-26T06:52:58.379Z,9.84
2023-04-26T06:55:25.183Z,9.89
2023-04-26T06:57:51.891Z,9.94
2023-04-26T07:00:19.060Z,9.97
2023-04-26T07:02:46.121Z,10.02
2023-04-26T07:05:13.276Z,10.00
2023-04-26T07:07:39.867Z,10.08
2023-04-26T07:10:08.544Z,10.15
2023-04-26T07:12:35.263Z,10.19
2023-04-26T07:15:01.848Z,10.18
2023-04-26T07:17:28.479Z,10.15
2023-04-26T07:19:56.195Z,10.21
2023-04-26T07:22:22.945Z,10.37
2023-04-26T07:24:49.612Z,10.48
2023-04-26T07:27:16.436Z,10.53
2023-04-26T07:29:42.974Z,10.69
2023-04-26T07:32:09.625Z,10.70
2023-04-26T07:34:36.230Z,10.90
2023-04-26T07:37:02.847Z,11.05
2023-04-26T07:39:29.459Z,11.13
2023-04-26T07:41:56.077Z,11.23
2023-04-26T07:44:22.644Z,11.25
2023-04-26T07:46:49.213Z,11.19
2023-04-26T07:49:15.872Z,11.12
2023-04-26T07:51:44.464Z,10.94
2023-04-26T07:54:11.147Z,10.99
2023-04-26T07:56:37.881Z,11.03
2023-04-26T07:59:05.033Z,11.19
2023-04-26T08:01:31.630Z,11.33
2023-04-26T08:03:58.402Z,11.46
2023-04-26T08:06:25.792Z,11.56
2023-04-26T08:08:53.732Z,11.77
2023-04-26T08:11:20.709Z,11.95
2023-04-26T08:13:47.545Z,12.04
2023-04-26T08:16:15.332Z,12.22
2023-04-26T08:18:43.433Z,12.25
2023-04-26T08:21:12.159Z,12.39
2023-04-26T08:23:38.722Z,12.57
2023-04-26T08:26:06.549Z,12.43
2023-04-26T08:28:33.258Z,12.38
2023-04-26T08:30:59.903Z,12.44
2023-04-26T08:33:26.593Z,12.53
2023-04-26T08:35:53.440Z,12.59
2023-04-26T08:38:22.521Z,12.66
2023-04-26T08:40:49.369Z,12.47
2023-04-26T08:43:17.606Z,12.74
2023-04-26T08:45:47.111Z,12.93
2023-04-26T08:48:18.370Z,13.06
2023-04-26T08:50:48.685Z,13.13
2023-04-26T08:53:17.977Z,13.25
2023-04-26T08:55:49.493Z,13.40
2023-04-26T08:58:17.803Z,13.43
2023-04-26T09:00:46.160Z,13.39
2023-04-26T09:03:13.293Z,13.41
2023-04-26T09:05:44.229Z,13.48
2023-04-26T09:08:16.335Z,13.65
2023-04-26T09:10:43.449Z,13.80
2023-04-26T09:13:10.102Z,13.60
2023-04-26T09:15:37.025Z,13.68
2023-04-26T09:18:23.063Z,13.91
2023-04-26T09:21:09.166Z,13.94
2023-04-26T09:23:36.040Z,13.96
2023-04-26T09:26:18.130Z,13.94
2023-04-26T09:28:46.451Z,13.96
2023-04-26T09:31:36.323Z,14.03
2023-04-26T09:34:03.314Z,13.95
2023-04-26T09:36:29.937Z,14.02
2023-04-26T09:38:56.577Z,14.07
2023-04-26T09:41:23.319Z,14.23
2023-04-26T09:43:53.468Z,14.33
2023-04-26T09:46:24.123Z,14.50
2023-04-26T09:49:03.533Z,14.68
2023-04-26T09:51:30.112Z,14.91
2023-04-26T09:53:56.847Z,15.08
2023-04-26T09:56:23.635Z,15.21
2023-04-26T09:58:53.417Z,15.33
2023-04-26T10:01:20.507Z,14.98
2023-04-26T10:03:47.633Z,15.17
2023-04-26T10:06:14.878Z,15.29
2023-04-26T10:08:41.779Z,15.32
2023-04-26T10:11:13.841Z,15.35
2023-04-26T10:13:42.038Z,15.24
2023-04-26T10:16:12.518Z,15.30
2023-04-26T10:18:39.299Z,14.62
2023-04-26T10:21:14.896Z,14.63
2023-04-26T10:23:42.032Z,14.69
2023-04-26T10:26:53.496Z,14.68
2023-04-26T10:29:25.767Z,14.89
2023-04-26T10:32:09.529Z,15.25
2023-04-26T10:34:37.328Z,15.60
2023-04-26T10:37:14.831Z,15.67
2023-04-26T10:39:43.430Z,15.61
2023-04-26T10:42:27.705Z,15.46
2023-04-26T10:44:59.102Z,15.58
2023-04-26T10:47:37.383Z,15.17
2023-04-26T10:50:11.504Z,14.97
2023-04-26T10:52:57.624Z,15.01
2023-04-26T10:55:43.336Z,15.52
2023-04-26T10:58:30.134Z,15.84
2023-04-26T11:01:11.837Z,15.57
2023-04-26T11:03:40.515Z,15.41
2023-04-26T11:06:09.884Z,15.07
2023-04-26T11:08:37.058Z,14.86
2023-04-26T11:11:03.608Z,14.70
2023-04-26T11:13:34.132Z,14.61
2023-04-26T11:16:05.606Z,14.82
2023-04-26T11:18:34.136Z,15.11
2023-04-26T11:21:01.451Z,15.44
2023-04-26T11:23:30.193Z,15.40
2023-04-26T11:26:03.381Z,15.34
2023-04-26T11:28:34.603Z,15.17
2023-04-26T11:31:04.203Z,15.00
2023-04-26T11:33:31.489Z,14.71
2023-04-26T11:35:58.854Z,14.66
2023-04-26T11:38:27.014Z,14.46
2023-04-26T11:41:01.831Z,14.54
2023-04-26T11:43:39.078Z,15.00
2023-04-26T11:46:07.470Z,15.34
2023-04-26T11:48:38.830Z,15.27
2023-04-26T11:51:07.516Z,15.42
2023-04-26T11:53:43.538Z,15.28
2023-04-26T11:56:21.947Z,15.25
2023-04-26T11:58:50.662Z,14.89
2023-04-26T12:01:23.462Z,14.67
2023-04-26T12:03:57.584Z,14.71
2023-04-26T12:06:32.981Z,14.72
2023-04-26T12:09:05.503Z,14.84
2023-04-26T12:11:32.194Z,15.25
2023-04-26T12:13:59.885Z,15.19
2023-04-26T12:16:27.316Z,15.52
2023-04-26T12:18:56.711Z,15.53
2023-04-26T12:21:30.377Z,15.75
2023-04-26T12:23:57.412Z,15.69
2023-04-26T12:26:44.407Z,15.25
2023-04-26T12:29:11.101Z,15.46
2023-04-26T12:31:37.799Z,15.41
2023-04-26T12:34:04.386Z,15.52
2023-04-26T12:36:31.664Z,15.30
2023-04-26T12:38:58.243Z,15.21
2023-04-26T12:41:24.806Z,15.22
2023-04-26T12:43:51.404Z,15.28
2023-04-26T12:46:18.077Z,15.31
2023-04-26T12:48:44.732Z,15.03
2023-04-26T12:51:11.296Z,15.28
2023-04-26T12:53:37.933Z,15.19
2023-04-26T12:56:04.830Z,14.99
2023-04-26T12:58:31.512Z,14.74
2023-04-26T13:00:58.181Z,14.69
2023-04-26T13:03:24.860Z,14.64
2023-04-26T13:05:52.368Z,14.90
2023-04-26T13:08:18.974Z,15.03
2023-04-26T13:10:45.569Z,15.10
2023-04-26T13:13:12.176Z,15.29
2023-04-26T13:15:38.937Z,15.83
2023-04-26T13:18:06.052Z,16.55
2023-04-26T13:20:32.652Z,16.45
2023-04-26T13:22:59.216Z,16.16
2023-04-26T13:25:25.810Z,15.91
2023-04-26T13:27:53.703Z,15.59
2023-04-26T13:30:20.456Z,15.21
2023-04-26T13:32:47.292Z,14.88
2023-04-26T13:35:14.079Z,14.53
2023-04-26T13:37:41.696Z,14.15
2023-04-26T13:40:11.233Z,13.92
2023-04-26T13:42:38.961Z,13.70
2023-04-26T13:45:09.430Z,14.22
2023-04-26T13:47:36.751Z,15.22
2023-04-26T13:50:03.680Z,16.10
2023-04-26T13:52:30.268Z,15.98
2023-04-26T13:54:56.842Z,15.82
2023-04-26T13:57:23.429Z,15.69
2023-04-26T13:59:50.109Z,15.55
2023-04-26T14:02:16.784Z,15.15
2023-04-26T14:04:43.689Z,15.15
2023-04-26T14:07:10.831Z,14.94
2023-04-26T14:09:37.400Z,14.95
2023-04-26T14:12:08.352Z,14.76
2023-04-26T14:14:36.083Z,14.67
2023-04-26T14:17:02.662Z,14.58
2023-04-26T14:19:29.391Z,14.47
2023-04-26T14:21:55.986Z,14.36
2023-04-26T14:24:22.716Z,14.39
2023-04-26T14:26:49.277Z,14.87
2023-04-26T14:29:15.834Z,16.01
2023-04-26T14:31:42.430Z,17.21
2023-04-26T14:34:09.142Z,18.25
2023-04-26T14:36:36.028Z,18.53
2023-04-26T14:39:02.689Z,17.72
2023-04-26T14:41:29.416Z,17.48
2023-04-26T14:43:56.142Z,18.56
2023-04-26T14:46:22.922Z,20.11
2023-04-26T14:48:49.551Z,19.73
2023-04-26T14:51:16.165Z,18.88
2023-04-26T14:53:42.738Z,18.26
2023-04-26T14:56:09.599Z,17.48
2023-04-26T14:58:36.290Z,16.74
2023-04-26T15:01:03.714Z,16.42
2023-04-26T15:03:30.467Z,15.79
2023-04-26T15:05:57.159Z,15.44
2023-04-26T15:08:23.746Z,15.09
2023-04-26T15:10:51.280Z,15.49
2023-04-26T15:13:18.232Z,17.06
2023-04-26T15:15:47.805Z,16.53
2023-04-26T15:18:14.455Z,16.33
2023-04-26T15:20:41.512Z,18.03
2023-04-26T15:23:08.425Z,19.98
2023-04-26T15:25:36.889Z,19.31
2023-04-26T15:28:03.875Z,20.00
2023-04-26T15:30:30.695Z,21.04
2023-04-26T15:32:57.772Z,21.76
2023-04-26T15:35:25.178Z,22.56
2023-04-26T15:37:53.713Z,23.09
2023-04-26T15:40:24.644Z,23.39
2023-04-26T15:42:52.010Z,23.20
2023-04-26T15:45:21.755Z,22.81
2023-04-26T15:47:48.337Z,23.15
2023-04-26T15:50:15.071Z,21.53
2023-04-26T15:52:42.194Z,19.57
2023-04-26T15:55:09.771Z,18.24
2023-04-26T15:57:36.570Z,17.63
2023-04-26T16:00:05.900Z,17.06
2023-04-26T16:02:32.507Z,16.69
2023-04-26T16:04:59.161Z,16.88
2023-04-26T16:07:26.502Z,17.29
2023-04-26T16:09:53.202Z,16.47
2023-04-26T16:12:19.766Z,15.83
2023-04-26T16:14:46.375Z,15.93
2023-04-26T16:17:12.900Z,17.47
2023-04-26T16:19:39.451Z,18.57
2023-04-26T16:22:06.219Z,19.14
2023-04-26T16:24:32.811Z,19.34
2023-04-26T16:26:59.426Z,19.61
2023-04-26T16:29:26.067Z,19.67
2023-04-26T16:31:52.956Z,19.69
2023-04-26T16:34:20.016Z,19.52
2023-04-26T16:36:46.810Z,18.36
2023-04-26T16:39:15.814Z,17.14
2023-04-26T16:41:42.744Z,15.33
2023-04-26T16:44:09.420Z,14.56
2023-04-26T16:46:36.397Z,14.51
2023-04-26T16:49:09.282Z,15.50
2023-04-26T16:51:37.210Z,15.34
2023-04-26T16:54:04.200Z,14.78
2023-04-26T16:56:30.800Z,14.19
2023-04-26T16:58:57.548Z,14.00
2023-04-26T17:01:24.187Z,13.87
2023-04-26T17:03:52.060Z,13.73
2023-04-26T17:06:18.952Z,13.73
2023-04-26T17:08:45.690Z,13.65
2023-04-26T17:11:16.248Z,13.55
2023-04-26T17:13:43.468Z,13.39
2023-04-26T17:16:10.245Z,13.12
2023-04-26T17:18:37.233Z,12.82
2023-04-26T17:21:05.253Z,12.72
2023-04-26T17:23:33.658Z,12.58
2023-04-26T17:26:01.680Z,12.42
2023-04-26T17:28:28.701Z,12.20
2023-04-26T17:30:55.404Z,12.15
2023-04-26T17:33:22.078Z,12.05
2023-04-26T17:35:48.941Z,11.85
2023-04-26T17:38:15.910Z,11.78
2023-04-26T17:40:42.511Z,11.66
2023-04-26T17:43:09.116Z,11.53
2023-04-26T17:45:35.860Z,11.23
2023-04-26T17:48:02.553Z,11.06
2023-04-26T17:50:30.287Z,10.99
2023-04-26T17:52:56.910Z,11.00
2023-04-26T17:55:23.501Z,10.89
2023-04-26T17:57:50.019Z,10.84
2023-04-26T18:00:16.985Z,10.79
2023-04-26T18:02:43.960Z,10.74
2023-04-26T18:05:10.959Z,10.64
2023-04-26T18:07:38.583Z,10.54
2023-04-26T18:10:06.543Z,10.41
2023-04-26T18:12:33.237Z,10.34
2023-04-26T18:14:59.946Z,10.21
2023-04-26T18:17:26.790Z,10.11
2023-04-26T18:19:53.481Z,9.94
2023-04-26T18:22:20.470Z,9.82
2023-04-26T18:24:47.137Z,9.76
2023-04-26T18:27:14.148Z,9.67
2023-04-26T18:29:41.436Z,9.69
2023-04-26T18:32:08.048Z,9.65
2023-04-26T18:34:34.615Z,9.52
2023-04-26T18:37:01.194Z,9.39
2023-04-26T18:39:27.719Z,9.33
2023-04-26T18:41:54.304Z,9.34
2023-04-26T18:44:20.904Z,9.19
2023-04-26T18:46:47.607Z,9.06
2023-04-26T18:49:14.276Z,8.95
2023-04-26T18:51:40.971Z,8.84
2023-04-26T18:54:07.511Z,8.76
2023-04-26T18:56:34.103Z,8.71
2023-04-26T18:59:00.671Z,8.66
2023-04-26T19:01:27.434Z,8.59
2023-04-26T19:03:54.316Z,8.52
2023-04-26T19:06:21.557Z,8.44
2023-04-26T19:08:48.175Z,8.39
2023-04-26T19:11:14.830Z,8.32
2023-04-26T19:13:41.599Z,8.31
2023-04-26T19:16:09.141Z,8.29
2023-04-26T19:18:36.985Z,8.31
2023-04-26T19:21:04.898Z,8.33
2023-04-26T19:23:31.926Z,8.33
2023-04-26T19:26:06.378Z,8.19
2023-04-26T19:28:33.354Z,8.18
2023-04-26T19:31:01.680Z,8.12
2023-04-26T19:33:28.906Z,8.10
2023-04-26T19:35:58.773Z,8.09
2023-04-26T19:38:25.920Z,8.02
2023-04-26T19:40:53.126Z,8.01
2023-04-26T19:43:20.534Z,8.00
2023-04-26T19:45:47.201Z,7.99
2023-04-26T19:48:13.872Z,7.91
2023-04-26T19:50:45.105Z,7.83
2023-04-26T19:53:13.473Z,7.77
2023-04-26T19:55:41.371Z,7.74
2023-04-26T19:58:08.427Z,7.78
2023-04-26T20:00:38.973Z,7.75
2023-04-26T20:03:06.691Z,7.67
2023-04-26T20:05:33.976Z,7.64
2023-04-26T20:08:01.413Z,7.60
2023-04-26T20:10:32.366Z,7.59
2023-04-26T20:13:00.266Z,7.59
2023-04-26T20:15:27.908Z,7.54
2023-04-26T20:17:55.087Z,7.46
2023-04-26T20:20:21.841Z,7.42
2023-04-26T20:22:48.430Z,7.42
2023-04-26T20:25:15.036Z,7.35
2023-04-26T20:27:41.787Z,7.27
2023-04-26T20:30:09.059Z,7.24
2023-04-26T20:32:35.649Z,7.24
2023-04-26T20:35:02.411Z,7.26
2023-04-26T20:37:29.007Z,7.23
2023-04-26T20:39:55.689Z,7.21
2023-04-26T20:42:23.146Z,7.20
2023-04-26T20:44:49.764Z,7.19
2023-04-26T20:47:16.662Z,7.20
2023-04-26T20:49:43.348Z,7.21
2023-04-26T20:52:10.106Z,7.23
2023-04-26T20:54:36.725Z,7.23
2023-04-26T20:57:03.868Z,7.21
2023-04-26T20:59:30.776Z,7.19
2023-04-26T21:01:57.687Z,7.21
2023-04-26T21:04:25.371Z,7.16
2023-04-26T21:06:52.252Z,7.10
2023-04-26T21:09:18.858Z,7.09
2023-04-26T21:11:45.507Z,7.05
2023-04-26T21:14:13.737Z,7.02
2023-04-26T21:16:40.661Z,6.99
2023-04-26T21:19:08.097Z,6.93
2023-04-26T21:21:35.120Z,6.90
2023-04-26T21:24:02.487Z,6.90
2023-04-26T21:26:29.117Z,6.92
2023-04-26T21:28:55.805Z,6.84
2023-04-26T21:31:22.454Z,6.81
2023-04-26T21:33:49.190Z,6.77
2023-04-26T21:36:16.309Z,6.72
2023-04-26T21:38:42.935Z,6.68
2023-04-26T21:41:09.542Z,6.64
2023-04-26T21:43:36.178Z,6.57
2023-04-26T21:46:03.400Z,6.48
2023-04-26T21:48:30.034Z,6.43
2023-04-26T21:50:57.096Z,6.30
2023-04-26T21:53:23.681Z,6.21
2023-04-26T21:55:54.241Z,6.17
2023-04-26T21:58:21.564Z,6.07
2023-04-26T22:00:48.714Z,6.04
2023-04-26T22:03:16.253Z,5.87
2023-04-26T22:05:43.266Z,5.77
2023-04-26T22:08:09.931Z,5.69
2023-04-26T22:10:36.695Z,5.57
2023-04-26T22:13:03.688Z,5.43
2023-04-26T22:15:30.859Z,5.30
2023-04-26T22:17:57.678Z,5.03
2023-04-26T22:20:24.557Z,4.92
2023-04-26T22:22:51.128Z,4.86
2023-04-26T22:25:17.803Z,4.80
2023-04-26T22:27:44.384Z,4.76
2023-04-26T22:30:23.129Z,4.61
2023-04-26T22:32:54.582Z,4.49
2023-04-26T22:35:22.249Z,4.47
2023-04-26T22:37:49.033Z,4.42
2023-04-26T22:40:15.745Z,4.46
2023-04-26T22:42:42.802Z,4.40
2023-04-26T22:45:10.795Z,4.40
2023-04-26T22:47:37.808Z,4.33
2023-04-26T22:50:06.081Z,4.32
2023-04-26T22:52:32.983Z,4.32
2023-04-26T22:55:02.816Z,4.29
2023-04-26T22:57:31.016Z,4.27
2023-04-26T22:59:57.819Z,4.27
2023-04-26T23:02:24.539Z,4.29
2023-04-26T23:04:51.420Z,4.29
2023-04-26T23:07:18.099Z,4.22
2023-04-26T23:09:44.831Z,4.20
2023-04-26T23:12:11.588Z,4.18
2023-04-26T23:14:38.155Z,4.13
2023-04-26T23:17:05.699Z,4.08
2023-04-26T23:19:33.162Z,4.05
2023-04-26T23:21:59.899Z,3.99
2023-04-26T23:24:26.904Z,3.99
2023-04-26T23:26:53.603Z,3.93
2023-04-26T23:29:20.204Z,3.86
2023-04-26T23:31:46.858Z,3.85
2023-04-26T23:34:13.992Z,3.83
2023-04-26T23:36:41.190Z,3.81
2023-04-26T23:39:08.775Z,3.78
2023-04-26T23:41:35.830Z,3.74
2023-04-26T23:44:02.416Z,3.70
2023-04-26T23:46:29.304Z,3.70
2023-04-26T23:48:56.108Z,3.66
2023-04-26T23:51:22.792Z,3.62
2023-04-26T23:53:49.353Z,3.64
2023-04-26T23:56:16.223Z,3.67
2023-04-26T23:58:42.881Z,3.72
